sensor_id;sensor_type;location;lat;lon;timestamp;temperature;humidity
44277;DHT22;29973;43.742;1.236;2023-05-10T00:01:40;12.00;99.90
44277;DHT22;29973;43.742;1.236;2023-05-10T00:04:06;12.20;99.90
44277;DHT22;29973;43.742;1.236;2023-05-10T00:06:32;12.00;99.90
44277;DHT22;29973;43.742;1.236;2023-05-10T00:08:57;11.90;99.90
44277;DHT22;29973;43.742;1.236;2023-05-10T00:11:23;12.10;99.90
44277;DHT22;29973;43.742;1.236;2023-05-10T00:13:49;12.10;99.90
44277;DHT22;29973;43.742;1.236;2023-05-10T00:16:15;12.20;99.90
44277;DHT22;29973;43.742;1.236;2023-05-10T00:18:41;12.20;99.90
44277;DHT22;29973;43.742;1.236;2023-05-10T00:21:06;12.10;99.90
44277;DHT22;29973;43.742;1.236;2023-05-10T00:23:32;12.10;99.90
44277;DHT22;29973;43.742;1.236;2023-05-10T00:25:58;12.10;99.90
44277;DHT22;29973;43.742;1.236;2023-05-10T00:28:23;12.20;99.90
44277;DHT22;29973;43.742;1.236;2023-05-10T00:30:49;12.10;99.90
44277;DHT22;29973;43.742;1.236;2023-05-10T00:33:15;12.00;99.90
44277;DHT22;29973;43.742;1.236;2023-05-10T00:35:41;11.90;99.90
44277;DHT22;29973;43.742;1.236;2023-05-10T00:38:06;11.80;99.90
44277;DHT22;29973;43.742;1.236;2023-05-10T00:40:32;11.90;99.90
44277;DHT22;29973;43.742;1.236;2023-05-10T00:42:58;11.80;99.90
44277;DHT22;29973;43.742;1.236;2023-05-10T00:45:26;11.70;99.90
44277;DHT22;29973;43.742;1.236;2023-05-10T00:47:52;11.70;99.90
44277;DHT22;29973;43.742;1.236;2023-05-10T00:50:23;11.70;99.90
44277;DHT22;29973;43.742;1.236;2023-05-10T00:52:49;11.90;99.90
44277;DHT22;29973;43.742;1.236;2023-05-10T00:55:15;11.80;99.90
44277;DHT22;29973;43.742;1.236;2023-05-10T00:57:41;11.80;99.90
44277;DHT22;29973;43.742;1.236;2023-05-10T01:00:08;11.80;99.90
44277;DHT22;29973;43.742;1.236;2023-05-10T01:02:34;11.60;99.90
44277;DHT22;29973;43.742;1.236;2023-05-10T01:05:02;11.40;99.90
44277;DHT22;29973;43.742;1.236;2023-05-10T01:07:29;11.50;99.90
44277;DHT22;29973;43.742;1.236;2023-05-10T01:09:55;11.50;99.90
44277;DHT22;29973;43.742;1.236;2023-05-10T01:12:22;11.20;99.90
44277;DHT22;29973;43.742;1.236;2023-05-10T01:14:48;11.20;99.90
44277;DHT22;29973;43.742;1.236;2023-05-10T01:17:14;11.30;99.90
44277;DHT22;29973;43.742;1.236;2023-05-10T01:19:40;11.30;99.90
44277;DHT22;29973;43.742;1.236;2023-05-10T01:36:32;11.50;99.90
44277;DHT22;29973;43.742;1.236;2023-05-10T01:44:46;11.60;99.90
44277;DHT22;29973;43.742;1.236;2023-05-10T01:47:17;11.60;99.90
44277;DHT22;29973;43.742;1.236;2023-05-10T01:49:50;11.60;99.90
44277;DHT22;29973;43.742;1.236;2023-05-10T01:52:22;11.70;99.90
44277;DHT22;29973;43.742;1.236;2023-05-10T01:55:00;11.80;99.90
44277;DHT22;29973;43.742;1.236;2023-05-10T01:57:33;11.70;99.90
44277;DHT22;29973;43.742;1.236;2023-05-10T02:00:01;11.60;99.90
44277;DHT22;29973;43.742;1.236;2023-05-10T02:02:32;11.60;99.90
44277;DHT22;29973;43.742;1.236;2023-05-10T02:04:59;11.70;99.90
44277;DHT22;29973;43.742;1.236;2023-05-10T02:07:27;11.70;99.90
44277;DHT22;29973;43.742;1.236;2023-05-10T02:09:55;11.60;99.90
44277;DHT22;29973;43.742;1.236;2023-05-10T02:12:22;11.60;99.90
44277;DHT22;29973;43.742;1.236;2023-05-10T02:14:51;11.60;99.90
44277;DHT22;29973;43.742;1.236;2023-05-10T02:17:18;11.50;99.90
44277;DHT22;29973;43.742;1.236;2023-05-10T02:19:46;11.60;99.90
44277;DHT22;29973;43.742;1.236;2023-05-10T02:22:13;11.80;99.90
44277;DHT22;29973;43.742;1.236;2023-05-10T02:24:39;11.80;99.90
44277;DHT22;29973;43.742;1.236;2023-05-10T02:27:06;12.00;99.90
44277;DHT22;29973;43.742;1.236;2023-05-10T02:29:33;12.00;99.90
44277;DHT22;29973;43.742;1.236;2023-05-10T02:32:00;12.00;99.90
44277;DHT22;29973;43.742;1.236;2023-05-10T02:34:26;12.10;99.90
44277;DHT22;29973;43.742;1.236;2023-05-10T02:36:54;12.00;99.90
44277;DHT22;29973;43.742;1.236;2023-05-10T02:39:22;11.90;99.90
44277;DHT22;29973;43.742;1.236;2023-05-10T02:41:49;11.80;99.90
44277;DHT22;29973;43.742;1.236;2023-05-10T02:44:18;11.60;99.90
44277;DHT22;29973;43.742;1.236;2023-05-10T02:46:45;11.50;99.90
44277;DHT22;29973;43.742;1.236;2023-05-10T02:49:11;11.50;99.90
44277;DHT22;29973;43.742;1.236;2023-05-10T02:51:47;11.50;99.90
44277;DHT22;29973;43.742;1.236;2023-05-10T02:54:25;11.40;99.90
44277;DHT22;29973;43.742;1.236;2023-05-10T02:57:04;11.40;99.90
44277;DHT22;29973;43.742;1.236;2023-05-10T02:59:30;11.40;99.90
44277;DHT22;29973;43.742;1.236;2023-05-10T03:01:59;11.30;99.90
44277;DHT22;29973;43.742;1.236;2023-05-10T03:04:25;11.30;99.90
44277;DHT22;29973;43.742;1.236;2023-05-10T03:06:51;11.30;99.90
44277;DHT22;29973;43.742;1.236;2023-05-10T03:09:18;11.30;99.90
44277;DHT22;29973;43.742;1.236;2023-05-10T03:14:49;11.20;99.90
44277;DHT22;29973;43.742;1.236;2023-05-10T03:17:35;11.20;99.90
44277;DHT22;29973;43.742;1.236;2023-05-10T03:20:08;11.10;99.90
44277;DHT22;29973;43.742;1.236;2023-05-10T03:22:45;11.20;99.90
44277;DHT22;29973;43.742;1.236;2023-05-10T03:25:13;11.10;99.90
44277;DHT22;29973;43.742;1.236;2023-05-10T03:27:43;11.10;99.90
44277;DHT22;29973;43.742;1.236;2023-05-10T03:30:11;11.20;99.90
44277;DHT22;29973;43.742;1.236;2023-05-10T03:32:38;11.10;99.90
44277;DHT22;29973;43.742;1.236;2023-05-10T03:35:10;11.10;99.90
44277;DHT22;29973;43.742;1.236;2023-05-10T03:37:37;11.10;99.90
44277;DHT22;29973;43.742;1.236;2023-05-10T03:40:03;11.00;99.90
44277;DHT22;29973;43.742;1.236;2023-05-10T03:42:29;11.00;99.90
44277;DHT22;29973;43.742;1.236;2023-05-10T03:44:55;10.90;99.90
44277;DHT22;29973;43.742;1.236;2023-05-10T03:47:20;10.90;99.90
44277;DHT22;29973;43.742;1.236;2023-05-10T03:49:46;10.80;99.90
44277;DHT22;29973;43.742;1.236;2023-05-10T03:52:12;10.90;99.90
44277;DHT22;29973;43.742;1.236;2023-05-10T03:54:37;10.80;99.90
44277;DHT22;29973;43.742;1.236;2023-05-10T03:57:04;10.80;99.90
44277;DHT22;29973;43.742;1.236;2023-05-10T03:59:29;10.80;99.90
44277;DHT22;29973;43.742;1.236;2023-05-10T04:01:55;10.90;99.90
44277;DHT22;29973;43.742;1.236;2023-05-10T04:04:21;10.90;99.90
44277;DHT22;29973;43.742;1.236;2023-05-10T04:06:48;11.00;99.90
44277;DHT22;29973;43.742;1.236;2023-05-10T04:09:14;11.10;99.90
44277;DHT22;29973;43.742;1.236;2023-05-10T04:11:40;11.10;99.90
44277;DHT22;29973;43.742;1.236;2023-05-10T04:14:06;11.10;99.90
44277;DHT22;29973;43.742;1.236;2023-05-10T04:16:31;11.00;99.90
44277;DHT22;29973;43.742;1.236;2023-05-10T04:18:57;10.90;99.90
44277;DHT22;29973;43.742;1.236;2023-05-10T04:21:23;11.00;99.90
44277;DHT22;29973;43.742;1.236;2023-05-10T04:23:49;10.90;99.90
44277;DHT22;29973;43.742;1.236;2023-05-10T04:26:15;10.80;99.90
44277;DHT22;29973;43.742;1.236;2023-05-10T04:28:40;10.70;99.90
44277;DHT22;29973;43.742;1.236;2023-05-10T04:31:08;10.70;99.90
44277;DHT22;29973;43.742;1.236;2023-05-10T04:33:34;10.60;99.90
44277;DHT22;29973;43.742;1.236;2023-05-10T04:36:00;10.50;99.90
44277;DHT22;29973;43.742;1.236;2023-05-10T04:38:26;10.40;99.90
44277;DHT22;29973;43.742;1.236;2023-05-10T04:40:55;10.40;99.90
44277;DHT22;29973;43.742;1.236;2023-05-10T04:43:28;10.40;99.90
44277;DHT22;29973;43.742;1.236;2023-05-10T04:45:56;10.30;99.90
44277;DHT22;29973;43.742;1.236;2023-05-10T04:48:22;10.10;99.90
44277;DHT22;29973;43.742;1.236;2023-05-10T04:50:48;10.20;99.90
44277;DHT22;29973;43.742;1.236;2023-05-10T04:53:14;10.20;99.90
44277;DHT22;29973;43.742;1.236;2023-05-10T04:55:50;10.30;99.90
44277;DHT22;29973;43.742;1.236;2023-05-10T04:58:15;10.40;99.90
44277;DHT22;29973;43.742;1.236;2023-05-10T05:00:41;10.40;99.90
44277;DHT22;29973;43.742;1.236;2023-05-10T05:03:07;10.40;99.90
44277;DHT22;29973;43.742;1.236;2023-05-10T05:05:33;10.40;99.90
44277;DHT22;29973;43.742;1.236;2023-05-10T05:07:59;10.50;99.90
44277;DHT22;29973;43.742;1.236;2023-05-10T05:10:25;10.60;99.90
44277;DHT22;29973;43.742;1.236;2023-05-10T05:12:50;10.80;99.90
44277;DHT22;29973;43.742;1.236;2023-05-10T05:15:16;10.90;99.90
44277;DHT22;29973;43.742;1.236;2023-05-10T05:17:43;10.90;99.90
44277;DHT22;29973;43.742;1.236;2023-05-10T05:20:09;10.90;99.90
44277;DHT22;29973;43.742;1.236;2023-05-10T05:22:38;11.00;99.90
44277;DHT22;29973;43.742;1.236;2023-05-10T05:25:04;11.10;99.90
44277;DHT22;29973;43.742;1.236;2023-05-10T05:27:31;11.20;99.90
44277;DHT22;29973;43.742;1.236;2023-05-10T05:29:57;11.20;99.90
44277;DHT22;29973;43.742;1.236;2023-05-10T05:32:24;11.30;99.90
44277;DHT22;29973;43.742;1.236;2023-05-10T05:34:50;11.20;99.90
44277;DHT22;29973;43.742;1.236;2023-05-10T05:37:17;11.10;99.90
44277;DHT22;29973;43.742;1.236;2023-05-10T05:39:44;11.10;99.90
44277;DHT22;29973;43.742;1.236;2023-05-10T05:42:11;11.10;99.90
44277;DHT22;29973;43.742;1.236;2023-05-10T05:44:36;11.00;99.90
44277;DHT22;29973;43.742;1.236;2023-05-10T05:47:02;10.90;99.90
44277;DHT22;29973;43.742;1.236;2023-05-10T05:49:28;11.00;99.90
44277;DHT22;29973;43.742;1.236;2023-05-10T05:51:54;11.00;99.90
44277;DHT22;29973;43.742;1.236;2023-05-10T05:54:20;11.10;99.90
44277;DHT22;29973;43.742;1.236;2023-05-10T05:56:45;11.10;99.90
44277;DHT22;29973;43.742;1.236;2023-05-10T05:59:11;11.10;99.90
44277;DHT22;29973;43.742;1.236;2023-05-10T06:01:37;11.00;99.90
44277;DHT22;29973;43.742;1.236;2023-05-10T06:04:03;11.00;99.90
44277;DHT22;29973;43.742;1.236;2023-05-10T06:06:28;10.90;99.90
44277;DHT22;29973;43.742;1.236;2023-05-10T06:08:55;10.80;99.90
44277;DHT22;29973;43.742;1.236;2023-05-10T06:11:20;10.70;99.90
44277;DHT22;29973;43.742;1.236;2023-05-10T06:13:47;10.80;99.90
44277;DHT22;29973;43.742;1.236;2023-05-10T06:16:12;10.90;99.90
44277;DHT22;29973;43.742;1.236;2023-05-10T06:18:39;11.20;99.90
44277;DHT22;29973;43.742;1.236;2023-05-10T06:21:05;11.40;99.90
44277;DHT22;29973;43.742;1.236;2023-05-10T06:23:30;11.30;99.90
44277;DHT22;29973;43.742;1.236;2023-05-10T06:25:56;11.30;99.90
44277;DHT22;29973;43.742;1.236;2023-05-10T06:28:22;11.20;99.90
44277;DHT22;29973;43.742;1.236;2023-05-10T06:30:47;11.10;99.90
44277;DHT22;29973;43.742;1.236;2023-05-10T06:33:13;11.10;99.90
44277;DHT22;29973;43.742;1.236;2023-05-10T06:35:39;11.20;99.90
44277;DHT22;29973;43.742;1.236;2023-05-10T06:38:05;11.40;99.90
44277;DHT22;29973;43.742;1.236;2023-05-10T06:40:31;11.70;99.90
44277;DHT22;29973;43.742;1.236;2023-05-10T06:42:56;11.90;99.90
44277;DHT22;29973;43.742;1.236;2023-05-10T06:45:22;12.10;99.90
44277;DHT22;29973;43.742;1.236;2023-05-10T06:47:48;12.10;99.90
44277;DHT22;29973;43.742;1.236;2023-05-10T06:50:13;12.30;99.90
44277;DHT22;29973;43.742;1.236;2023-05-10T06:52:39;12.40;99.90
44277;DHT22;29973;43.742;1.236;2023-05-10T06:55:05;12.50;99.90
44277;DHT22;29973;43.742;1.236;2023-05-10T06:57:32;12.70;99.90
44277;DHT22;29973;43.742;1.236;2023-05-10T07:00:01;12.90;99.90
44277;DHT22;29973;43.742;1.236;2023-05-10T07:02:27;13.00;99.90
44277;DHT22;29973;43.742;1.236;2023-05-10T07:04:53;13.30;99.90
44277;DHT22;29973;43.742;1.236;2023-05-10T07:07:19;13.40;99.90
44277;DHT22;29973;43.742;1.236;2023-05-10T07:09:45;13.30;99.90
44277;DHT22;29973;43.742;1.236;2023-05-10T07:12:10;13.40;99.90
44277;DHT22;29973;43.742;1.236;2023-05-10T07:14:36;13.50;99.90
44277;DHT22;29973;43.742;1.236;2023-05-10T07:17:02;13.50;99.90
44277;DHT22;29973;43.742;1.236;2023-05-10T07:19:28;13.80;99.90
44277;DHT22;29973;43.742;1.236;2023-05-10T07:21:55;14.00;99.90
44277;DHT22;29973;43.742;1.236;2023-05-10T07:24:21;14.00;99.90
44277;DHT22;29973;43.742;1.236;2023-05-10T07:26:46;13.60;99.90
44277;DHT22;29973;43.742;1.236;2023-05-10T07:29:12;13.20;99.90
44277;DHT22;29973;43.742;1.236;2023-05-10T07:31:38;13.20;99.90
44277;DHT22;29973;43.742;1.236;2023-05-10T07:34:04;13.50;99.90
44277;DHT22;29973;43.742;1.236;2023-05-10T07:36:30;13.80;99.90
44277;DHT22;29973;43.742;1.236;2023-05-10T07:38:56;14.10;99.90
44277;DHT22;29973;43.742;1.236;2023-05-10T07:41:22;14.50;99.90
44277;DHT22;29973;43.742;1.236;2023-05-10T07:43:48;15.20;99.90
44277;DHT22;29973;43.742;1.236;2023-05-10T07:46:14;15.30;99.90
44277;DHT22;29973;43.742;1.236;2023-05-10T07:48:40;15.20;99.90
44277;DHT22;29973;43.742;1.236;2023-05-10T07:51:05;14.90;99.90
44277;DHT22;29973;43.742;1.236;2023-05-10T07:53:32;14.50;99.90
44277;DHT22;29973;43.742;1.236;2023-05-10T07:55:58;14.50;99.90
44277;DHT22;29973;43.742;1.236;2023-05-10T07:58:24;14.80;99.90
44277;DHT22;29973;43.742;1.236;2023-05-10T08:00:50;14.50;99.90
44277;DHT22;29973;43.742;1.236;2023-05-10T08:03:16;14.80;99.90
44277;DHT22;29973;43.742;1.236;2023-05-10T08:05:42;14.70;99.90
44277;DHT22;29973;43.742;1.236;2023-05-10T08:08:08;15.10;99.90
44277;DHT22;29973;43.742;1.236;2023-05-10T08:10:33;14.90;99.90
44277;DHT22;29973;43.742;1.236;2023-05-10T08:12:59;15.00;99.90
44277;DHT22;29973;43.742;1.236;2023-05-10T08:15:25;15.20;99.90
44277;DHT22;29973;43.742;1.236;2023-05-10T08:17:54;15.80;99.90
44277;DHT22;29973;43.742;1.236;2023-05-10T08:20:20;15.20;99.90
44277;DHT22;29973;43.742;1.236;2023-05-10T08:22:46;15.40;99.90
44277;DHT22;29973;43.742;1.236;2023-05-10T08:25:11;14.90;99.90
44277;DHT22;29973;43.742;1.236;2023-05-10T08:27:37;15.40;99.90
44277;DHT22;29973;43.742;1.236;2023-05-10T08:30:03;15.70;99.90
44277;DHT22;29973;43.742;1.236;2023-05-10T08:32:29;16.70;99.90
44277;DHT22;29973;43.742;1.236;2023-05-10T08:34:55;15.90;99.90
44277;DHT22;29973;43.742;1.236;2023-05-10T08:37:23;15.40;99.90
44277;DHT22;29973;43.742;1.236;2023-05-10T08:39:49;15.10;99.90
44277;DHT22;29973;43.742;1.236;2023-05-10T08:42:19;15.50;99.90
44277;DHT22;29973;43.742;1.236;2023-05-10T08:44:46;16.10;99.90
44277;DHT22;29973;43.742;1.236;2023-05-10T08:47:15;15.70;99.90
44277;DHT22;29973;43.742;1.236;2023-05-10T08:49:43;15.60;99.90
44277;DHT22;29973;43.742;1.236;2023-05-10T08:52:11;15.70;99.90
44277;DHT22;29973;43.742;1.236;2023-05-10T08:54:38;16.10;99.90
44277;DHT22;29973;43.742;1.236;2023-05-10T08:57:04;17.10;99.90
44277;DHT22;29973;43.742;1.236;2023-05-10T08:59:31;17.10;99.90
44277;DHT22;29973;43.742;1.236;2023-05-10T09:01:58;17.00;99.90
44277;DHT22;29973;43.742;1.236;2023-05-10T09:04:25;15.30;99.90
44277;DHT22;29973;43.742;1.236;2023-05-10T09:06:51;14.60;99.90
44277;DHT22;29973;43.742;1.236;2023-05-10T09:09:17;13.80;99.90
44277;DHT22;29973;43.742;1.236;2023-05-10T09:11:44;13.80;99.90
44277;DHT22;29973;43.742;1.236;2023-05-10T09:14:10;13.50;99.90
44277;DHT22;29973;43.742;1.236;2023-05-10T09:16:37;14.40;99.90
44277;DHT22;29973;43.742;1.236;2023-05-10T09:19:03;15.10;99.90
44277;DHT22;29973;43.742;1.236;2023-05-10T09:21:30;15.10;99.90
44277;DHT22;29973;43.742;1.236;2023-05-10T09:23:56;15.60;99.90
44277;DHT22;29973;43.742;1.236;2023-05-10T09:26:23;15.50;99.90
44277;DHT22;29973;43.742;1.236;2023-05-10T09:28:52;15.70;99.90
44277;DHT22;29973;43.742;1.236;2023-05-10T09:31:18;16.00;99.90
44277;DHT22;29973;43.742;1.236;2023-05-10T09:33:48;15.70;99.90
44277;DHT22;29973;43.742;1.236;2023-05-10T09:36:15;15.80;99.90
44277;DHT22;29973;43.742;1.236;2023-05-10T09:38:51;16.20;99.90
44277;DHT22;29973;43.742;1.236;2023-05-10T09:41:22;16.40;99.90
44277;DHT22;29973;43.742;1.236;2023-05-10T09:43:49;16.80;99.90
44277;DHT22;29973;43.742;1.236;2023-05-10T09:46:15;16.50;99.90
44277;DHT22;29973;43.742;1.236;2023-05-10T09:48:46;16.80;99.90
44277;DHT22;29973;43.742;1.236;2023-05-10T09:51:22;16.70;99.90
44277;DHT22;29973;43.742;1.236;2023-05-10T09:53:48;17.00;99.90
44277;DHT22;29973;43.742;1.236;2023-05-10T09:56:33;17.30;99.90
44277;DHT22;29973;43.742;1.236;2023-05-10T09:59:03;17.40;99.90
44277;DHT22;29973;43.742;1.236;2023-05-10T10:01:29;17.30;99.90
44277;DHT22;29973;43.742;1.236;2023-05-10T10:03:56;17.10;99.90
44277;DHT22;29973;43.742;1.236;2023-05-10T10:06:23;17.30;99.90
44277;DHT22;29973;43.742;1.236;2023-05-10T10:08:50;17.90;99.90
44277;DHT22;29973;43.742;1.236;2023-05-10T10:11:16;18.00;99.90
44277;DHT22;29973;43.742;1.236;2023-05-10T10:13:42;17.20;99.90
44277;DHT22;29973;43.742;1.236;2023-05-10T10:16:08;17.40;99.90
44277;DHT22;29973;43.742;1.236;2023-05-10T10:18:36;17.60;99.90
44277;DHT22;29973;43.742;1.236;2023-05-10T10:21:08;18.60;99.90
44277;DHT22;29973;43.742;1.236;2023-05-10T10:23:37;19.50;99.90
44277;DHT22;29973;43.742;1.236;2023-05-10T10:26:04;18.10;99.90
44277;DHT22;29973;43.742;1.236;2023-05-10T10:29:04;18.00;99.90
44277;DHT22;29973;43.742;1.236;2023-05-10T10:34:08;16.70;99.90
44277;DHT22;29973;43.742;1.236;2023-05-10T10:36:45;14.90;99.90
44277;DHT22;29973;43.742;1.236;2023-05-10T10:39:11;15.20;99.90
44277;DHT22;29973;43.742;1.236;2023-05-10T10:41:51;15.70;99.90
44277;DHT22;29973;43.742;1.236;2023-05-10T10:54:41;15.30;99.90
44277;DHT22;29973;43.742;1.236;2023-05-10T10:57:13;13.00;99.90
44277;DHT22;29973;43.742;1.236;2023-05-10T10:59:43;12.50;99.90
44277;DHT22;29973;43.742;1.236;2023-05-10T11:02:09;12.90;99.90
44277;DHT22;29973;43.742;1.236;2023-05-10T11:04:42;13.40;99.90
44277;DHT22;29973;43.742;1.236;2023-05-10T11:07:18;13.70;99.90
44277;DHT22;29973;43.742;1.236;2023-05-10T11:09:46;14.80;99.90
44277;DHT22;29973;43.742;1.236;2023-05-10T11:12:12;13.80;99.90
44277;DHT22;29973;43.742;1.236;2023-05-10T11:14:38;14.50;99.90
44277;DHT22;29973;43.742;1.236;2023-05-10T11:17:23;14.90;99.90
44277;DHT22;29973;43.742;1.236;2023-05-10T11:20:09;14.40;99.90
44277;DHT22;29973;43.742;1.236;2023-05-10T11:22:51;15.70;99.90
44277;DHT22;29973;43.742;1.236;2023-05-10T11:25:18;14.20;99.90
44277;DHT22;29973;43.742;1.236;2023-05-10T11:27:44;15.50;99.90
44277;DHT22;29973;43.742;1.236;2023-05-10T11:30:11;15.70;99.90
44277;DHT22;29973;43.742;1.236;2023-05-10T11:32:40;14.80;99.90
44277;DHT22;29973;43.742;1.236;2023-05-10T11:35:10;18.10;99.90
44277;DHT22;29973;43.742;1.236;2023-05-10T11:37:36;17.90;99.90
44277;DHT22;29973;43.742;1.236;2023-05-10T11:40:02;17.20;99.90
44277;DHT22;29973;43.742;1.236;2023-05-10T11:42:29;18.90;99.90
44277;DHT22;29973;43.742;1.236;2023-05-10T11:44:55;19.90;99.90
44277;DHT22;29973;43.742;1.236;2023-05-10T11:47:21;20.00;99.90
44277;DHT22;29973;43.742;1.236;2023-05-10T11:49:48;21.60;99.90
44277;DHT22;29973;43.742;1.236;2023-05-10T11:52:14;20.80;99.90
44277;DHT22;29973;43.742;1.236;2023-05-10T11:54:53;19.70;99.90
44277;DHT22;29973;43.742;1.236;2023-05-10T11:57:19;20.30;99.90
44277;DHT22;29973;43.742;1.236;2023-05-10T11:59:46;20.90;99.60
44277;DHT22;29973;43.742;1.236;2023-05-10T12:02:13;20.30;99.90
44277;DHT22;29973;43.742;1.236;2023-05-10T12:04:39;21.80;99.00
44277;DHT22;29973;43.742;1.236;2023-05-10T12:07:05;21.00;99.90
44277;DHT22;29973;43.742;1.236;2023-05-10T12:09:31;22.80;95.90
44277;DHT22;29973;43.742;1.236;2023-05-10T12:11:57;22.40;95.40
44277;DHT22;29973;43.742;1.236;2023-05-10T12:14:22;20.60;97.30
44277;DHT22;29973;43.742;1.236;2023-05-10T12:16:49;21.70;98.00
44277;DHT22;29973;43.742;1.236;2023-05-10T12:19:19;22.80;95.10
44277;DHT22;29973;43.742;1.236;2023-05-10T12:21:48;19.50;98.70
44277;DHT22;29973;43.742;1.236;2023-05-10T12:24:14;20.70;98.60
44277;DHT22;29973;43.742;1.236;2023-05-10T12:26:43;19.70;99.70
44277;DHT22;29973;43.742;1.236;2023-05-10T12:29:15;20.00;98.80
44277;DHT22;29973;43.742;1.236;2023-05-10T12:31:54;20.60;97.10
44277;DHT22;29973;43.742;1.236;2023-05-10T12:34:30;22.40;95.10
44277;DHT22;29973;43.742;1.236;2023-05-10T12:36:57;18.60;99.90
44277;DHT22;29973;43.742;1.236;2023-05-10T12:39:23;17.70;99.90
44277;DHT22;29973;43.742;1.236;2023-05-10T12:41:49;20.20;99.90
44277;DHT22;29973;43.742;1.236;2023-05-10T12:44:15;21.50;98.60
44277;DHT22;29973;43.742;1.236;2023-05-10T12:46:40;23.60;93.30
44277;DHT22;29973;43.742;1.236;2023-05-10T12:49:06;23.00;94.40
44277;DHT22;29973;43.742;1.236;2023-05-10T12:51:32;22.80;92.70
44277;DHT22;29973;43.742;1.236;2023-05-10T12:53:57;23.80;91.30
44277;DHT22;29973;43.742;1.236;2023-05-10T12:56:23;23.40;93.10
44277;DHT22;29973;43.742;1.236;2023-05-10T12:58:49;23.40;91.20
44277;DHT22;29973;43.742;1.236;2023-05-10T13:01:14;24.00;91.80
44277;DHT22;29973;43.742;1.236;2023-05-10T13:03:40;24.90;86.30
44277;DHT22;29973;43.742;1.236;2023-05-10T13:06:06;23.00;91.30
44277;DHT22;29973;43.742;1.236;2023-05-10T13:08:32;20.60;94.50
44277;DHT22;29973;43.742;1.236;2023-05-10T13:11:02;18.90;99.90
44277;DHT22;29973;43.742;1.236;2023-05-10T13:13:28;16.40;99.90
44277;DHT22;29973;43.742;1.236;2023-05-10T13:15:54;18.40;99.90
44277;DHT22;29973;43.742;1.236;2023-05-10T13:18:20;23.00;99.90
44277;DHT22;29973;43.742;1.236;2023-05-10T13:20:45;24.50;99.10
44277;DHT22;29973;43.742;1.236;2023-05-10T13:23:11;20.20;99.90
44277;DHT22;29973;43.742;1.236;2023-05-10T13:25:37;18.20;99.90
44277;DHT22;29973;43.742;1.236;2023-05-10T13:28:05;16.60;99.90
44277;DHT22;29973;43.742;1.236;2023-05-10T13:30:31;14.90;99.90
44277;DHT22;29973;43.742;1.236;2023-05-10T13:32:56;12.90;99.90
44277;DHT22;29973;43.742;1.236;2023-05-10T13:35:22;12.50;99.90
44277;DHT22;29973;43.742;1.236;2023-05-10T13:37:48;12.70;99.90
44277;DHT22;29973;43.742;1.236;2023-05-10T13:40:14;13.40;99.90
44277;DHT22;29973;43.742;1.236;2023-05-10T13:42:40;13.70;99.90
44277;DHT22;29973;43.742;1.236;2023-05-10T13:45:07;14.00;99.90
44277;DHT22;29973;43.742;1.236;2023-05-10T13:47:33;14.20;99.90
44277;DHT22;29973;43.742;1.236;2023-05-10T13:49:58;14.10;99.90
44277;DHT22;29973;43.742;1.236;2023-05-10T13:52:24;13.80;99.90
44277;DHT22;29973;43.742;1.236;2023-05-10T13:54:50;13.50;99.90
44277;DHT22;29973;43.742;1.236;2023-05-10T13:57:18;13.90;99.90
44277;DHT22;29973;43.742;1.236;2023-05-10T13:59:43;14.20;99.90
44277;DHT22;29973;43.742;1.236;2023-05-10T14:02:09;14.70;99.90
44277;DHT22;29973;43.742;1.236;2023-05-10T14:04:38;14.60;99.90
44277;DHT22;29973;43.742;1.236;2023-05-10T14:07:04;15.30;99.90
44277;DHT22;29973;43.742;1.236;2023-05-10T14:09:30;14.80;99.90
44277;DHT22;29973;43.742;1.236;2023-05-10T14:11:55;15.30;99.90
44277;DHT22;29973;43.742;1.236;2023-05-10T14:14:21;15.60;99.90
44277;DHT22;29973;43.742;1.236;2023-05-10T14:16:47;15.30;99.90
44277;DHT22;29973;43.742;1.236;2023-05-10T14:19:13;16.40;99.90
44277;DHT22;29973;43.742;1.236;2023-05-10T14:21:38;17.00;99.90
44277;DHT22;29973;43.742;1.236;2023-05-10T14:24:04;17.80;99.90
44277;DHT22;29973;43.742;1.236;2023-05-10T14:26:32;18.50;99.90
44277;DHT22;29973;43.742;1.236;2023-05-10T14:28:57;18.80;99.90
44277;DHT22;29973;43.742;1.236;2023-05-10T14:31:24;19.10;99.90
44277;DHT22;29973;43.742;1.236;2023-05-10T14:33:50;19.60;99.90
44277;DHT22;29973;43.742;1.236;2023-05-10T14:36:17;19.10;99.90
44277;DHT22;29973;43.742;1.236;2023-05-10T14:38:43;18.90;99.90
44277;DHT22;29973;43.742;1.236;2023-05-10T14:41:09;18.70;99.90
44277;DHT22;29973;43.742;1.236;2023-05-10T14:43:39;18.90;99.90
44277;DHT22;29973;43.742;1.236;2023-05-10T14:46:04;17.60;99.90
44277;DHT22;29973;43.742;1.236;2023-05-10T14:48:30;18.10;99.90
44277;DHT22;29973;43.742;1.236;2023-05-10T14:50:56;18.10;99.90
44277;DHT22;29973;43.742;1.236;2023-05-10T14:53:22;18.50;99.90
44277;DHT22;29973;43.742;1.236;2023-05-10T14:55:48;20.20;99.90
44277;DHT22;29973;43.742;1.236;2023-05-10T14:58:13;19.00;99.90
44277;DHT22;29973;43.742;1.236;2023-05-10T15:00:40;17.20;99.90
44277;DHT22;29973;43.742;1.236;2023-05-10T15:03:06;16.50;99.90
44277;DHT22;29973;43.742;1.236;2023-05-10T15:05:32;16.40;99.90
44277;DHT22;29973;43.742;1.236;2023-05-10T15:07:57;16.00;99.90
44277;DHT22;29973;43.742;1.236;2023-05-10T15:10:23;16.00;99.90
44277;DHT22;29973;43.742;1.236;2023-05-10T15:12:50;15.70;99.90
44277;DHT22;29973;43.742;1.236;2023-05-10T15:15:15;16.30;99.90
44277;DHT22;29973;43.742;1.236;2023-05-10T15:17:41;16.50;99.90
44277;DHT22;29973;43.742;1.236;2023-05-10T15:20:07;16.10;99.90
44277;DHT22;29973;43.742;1.236;2023-05-10T15:22:33;16.70;99.90
44277;DHT22;29973;43.742;1.236;2023-05-10T15:24:59;16.50;99.90
44277;DHT22;29973;43.742;1.236;2023-05-10T15:27:25;16.60;99.90
44277;DHT22;29973;43.742;1.236;2023-05-10T15:29:51;17.20;99.90
44277;DHT22;29973;43.742;1.236;2023-05-10T15:32:17;17.40;99.90
44277;DHT22;29973;43.742;1.236;2023-05-10T15:34:42;18.50;99.90
44277;DHT22;29973;43.742;1.236;2023-05-10T15:37:08;18.00;99.90
44277;DHT22;29973;43.742;1.236;2023-05-10T15:39:35;22.50;99.90
44277;DHT22;29973;43.742;1.236;2023-05-10T15:42:01;19.90;99.90
44277;DHT22;29973;43.742;1.236;2023-05-10T15:44:26;19.30;99.90
44277;DHT22;29973;43.742;1.236;2023-05-10T15:46:52;19.80;99.90
44277;DHT22;29973;43.742;1.236;2023-05-10T15:49:18;19.40;99.90
44277;DHT22;29973;43.742;1.236;2023-05-10T15:51:43;22.00;99.90
44277;DHT22;29973;43.742;1.236;2023-05-10T15:54:09;19.60;99.90
44277;DHT22;29973;43.742;1.236;2023-05-10T15:56:35;16.90;99.90
44277;DHT22;29973;43.742;1.236;2023-05-10T15:59:01;16.70;99.90
44277;DHT22;29973;43.742;1.236;2023-05-10T16:01:28;16.30;99.90
44277;DHT22;29973;43.742;1.236;2023-05-10T16:03:55;16.30;99.90
44277;DHT22;29973;43.742;1.236;2023-05-10T16:06:21;15.80;99.90